»·PEaware :: N9193G KBUR-KFUL

N9193G :: KBUR-KFUL

FLIGHT INFORMATION

Flight Status: Arrived
Operator: Privately registered:
United States
More flights under this callsign
Pilot: Seung K. (26649)
Aircraft: CESSNA 206 STATIONAIR
(C206)
More flights by this aircraft type
Origin: KBUR Bob Hope-Burbank
United States
Destination: KFUL Fullerton Mun
United States
More flights between these airports :: More routes between these airports
Route: VPLRB EMT VPLSC
File this flight plan on PilotEdge
Remarks: CAT-9 RATING
Altitude:
(Current/Filed)
3,500ft
Speed:
(Current/Filed)
110kts
Departed: 16-Dec-19 05:28 PM
Arrived: 16-Dec-19 06:09 PM
Distance/Time
Traveled:
27nm/0:40
Distance/Time
To Go:
Arrived

Flight Plot

Page will automatically refresh every two minutes.

Flight plan parsing failed; only flown route is shown


Map Options




Map Legend


Flown Route
Filed Route
Departure Airport
Arrival Airport
Navaid (VOR, NDB)
Fix

Horizontal Profiles

Position Reports

Time Latitude Longitude Heading Altitude Ground
Speed
16-Dec-19 17:11 34.195425 -118.354788 64 699ft 0kts
16-Dec-19 17:12 34.195425 -118.354788 64 699ft 0kts
16-Dec-19 17:13 34.195425 -118.354788 64 699ft 0kts
16-Dec-19 17:14 34.195425 -118.354788 64 699ft 0kts
16-Dec-19 17:21 34.195504 -118.354722 334 699ft 0kts
16-Dec-19 17:22 34.195530 -118.354748 318 699ft 0kts
16-Dec-19 17:23 34.195553 -118.354773 319 699ft 0kts
16-Dec-19 17:24 34.195575 -118.354796 319 699ft 0kts
16-Dec-19 17:25 34.195600 -118.354822 319 700ft 0kts
16-Dec-19 17:26 34.197631 -118.355034 342 704ft 17kts
16-Dec-19 17:27 34.205124 -118.357188 341 731ft 54kts
16-Dec-19 17:28 34.212408 -118.359864 234 766ft 0kts
16-Dec-19 17:29 34.195433 -118.354770 58 699ft 0kts
16-Dec-19 17:30 34.195480 -118.354757 341 699ft 0kts
16-Dec-19 17:31 34.196085 -118.355042 337 701ft 13kts
16-Dec-19 17:32 34.199145 -118.355469 346 708ft 17kts
16-Dec-19 17:33 34.205499 -118.357240 343 733ft 38kts
16-Dec-19 17:34 34.210316 -118.358479 349 756ft 32kts
16-Dec-19 17:35 34.211762 -118.359163 314 763ft 0kts
16-Dec-19 17:36 34.211079 -118.360051 177 764ft 24kts
16-Dec-19 17:37 34.199082 -118.355690 143 1425ft 92kts
16-Dec-19 17:38 34.193993 -118.335820 129 2416ft 97kts
16-Dec-19 17:39 34.186298 -118.311906 102 2466ft 155kts
16-Dec-19 17:40 34.181922 -118.281361 106 2981ft 142kts
16-Dec-19 17:41 34.176684 -118.251829 107 3715ft 136kts
16-Dec-19 17:42 34.171643 -118.224307 107 4176ft 149kts
16-Dec-19 17:43 34.165459 -118.190938 106 3806ft 168kts
16-Dec-19 17:44 34.157153 -118.159989 129 3812ft 160kts
16-Dec-19 17:45 34.142372 -118.134155 129 3561ft 167kts
16-Dec-19 17:46 34.128656 -118.109968 129 3533ft 159kts
16-Dec-19 17:47 34.113380 -118.083011 129 3561ft 159kts
16-Dec-19 17:48 34.098068 -118.055993 129 3537ft 159kts
16-Dec-19 17:49 34.083035 -118.032520 152 3528ft 151kts
16-Dec-19 17:50 34.062979 -118.017711 154 3529ft 150kts
16-Dec-19 17:51 34.041835 -118.002228 154 3533ft 150kts
16-Dec-19 17:52 34.021192 -117.987060 154 3487ft 155kts
16-Dec-19 17:53 33.996223 -117.968730 153 3008ft 163kts
16-Dec-19 17:54 33.972192 -117.951067 153 2708ft 162kts
16-Dec-19 17:55 33.950747 -117.935325 153 2371ft 162kts
16-Dec-19 17:56 33.929915 -117.919940 155 2086ft 123kts
16-Dec-19 17:57 33.914760 -117.908924 155 1695ft 120kts
16-Dec-19 17:58 33.903473 -117.908966 238 1363ft 78kts
16-Dec-19 17:59 33.897902 -117.920887 238 1284ft 72kts
16-Dec-19 18:00 33.893182 -117.932561 245 1352ft 57kts
16-Dec-19 18:01 33.890121 -117.943758 249 1335ft 65kts
16-Dec-19 18:02 33.886957 -117.956103 252 1278ft 75kts
16-Dec-19 18:03 33.885248 -117.968511 255 1300ft 65kts
16-Dec-19 18:04 33.884407 -117.980234 262 1201ft 68kts
16-Dec-19 18:05 33.884203 -117.992290 254 1106ft 67kts
16-Dec-19 18:06 33.877777 -117.996340 164 906ft 79kts
16-Dec-19 18:07 33.871262 -117.985136 95 357ft 93kts
16-Dec-19 18:08 33.871920 -117.973313 183 97ft 10kts
16-Dec-19 18:09 33.871874 -117.973316 183 97ft 0kts
16-Dec-19 18:10 33.871874 -117.973316 183 97ft 0kts
16-Dec-19 18:11 33.871874 -117.973316 183 97ft 0kts
16-Dec-19 18:12 33.871874 -117.973316 183 97ft 0kts
16-Dec-19 18:13 33.871874 -117.973316 183 97ft 0kts
16-Dec-19 18:14 33.871874 -117.973316 183 97ft 0kts

Navigation Log

Ident Type
Flight plan parsing failed, navigation log unavailable